Kaprijke, Belgium
Current Conditions -  °F | °C
As of 5:25 PM on Saturday 22 Nov 2014 (Local Time) from EHFS Reporting Station
Clear Clear  
Wind Chill: 52°   Ceiling: Unl
Heat Index: 52°   Visibility: 3mi
Dew Point: 52°   Wind: 2mph
Humidity: 100%   Direction: NA
Pressure: 29.97"   Gusts: NA
Location:  51.22°N, 3.62°E
Report Text: EHFS 221625Z AUTO VRB02KT 5000 NSC 11/11 Q1015
Loading
Personal Weather Stations






























Interactive Weather Map New forecast layout! Learn more

10-Day Weather Forecast

Advertisements
Track Severe Weather on mobile